sensor_id;sensor_type;location;lat;lon;timestamp;temperature;humidity
23087;DHT22;11712;51.134;4.156;2022-10-16T00:00:40;13.80;99.90
23087;DHT22;11712;51.134;4.156;2022-10-16T00:03:07;13.80;99.90
23087;DHT22;11712;51.134;4.156;2022-10-16T00:05:39;13.80;99.90
23087;DHT22;11712;51.134;4.156;2022-10-16T00:08:05;13.80;99.90
23087;DHT22;11712;51.134;4.156;2022-10-16T00:10:31;13.90;99.90
23087;DHT22;11712;51.134;4.156;2022-10-16T00:12:56;13.80;99.90
23087;DHT22;11712;51.134;4.156;2022-10-16T00:15:22;13.80;99.90
23087;DHT22;11712;51.134;4.156;2022-10-16T00:17:48;13.90;99.90
23087;DHT22;11712;51.134;4.156;2022-10-16T00:20:13;13.90;99.90
23087;DHT22;11712;51.134;4.156;2022-10-16T00:22:39;13.90;99.90
23087;DHT22;11712;51.134;4.156;2022-10-16T00:25:06;14.00;99.90
23087;DHT22;11712;51.134;4.156;2022-10-16T00:27:31;13.90;99.90
23087;DHT22;11712;51.134;4.156;2022-10-16T00:29:58;13.80;99.90
23087;DHT22;11712;51.134;4.156;2022-10-16T00:32:23;13.80;99.90
23087;DHT22;11712;51.134;4.156;2022-10-16T00:34:49;13.80;99.90
23087;DHT22;11712;51.134;4.156;2022-10-16T00:37:15;13.70;99.90
23087;DHT22;11712;51.134;4.156;2022-10-16T00:39:40;13.70;99.90
23087;DHT22;11712;51.134;4.156;2022-10-16T00:42:06;13.60;99.90
23087;DHT22;11712;51.134;4.156;2022-10-16T00:44:56;13.60;99.90
23087;DHT22;11712;51.134;4.156;2022-10-16T00:47:41;13.50;99.90
23087;DHT22;11712;51.134;4.156;2022-10-16T00:50:18;13.50;99.90
23087;DHT22;11712;51.134;4.156;2022-10-16T00:52:46;13.50;99.90
23087;DHT22;11712;51.134;4.156;2022-10-16T00:55:13;13.40;99.90
23087;DHT22;11712;51.134;4.156;2022-10-16T00:57:39;13.50;99.90
23087;DHT22;11712;51.134;4.156;2022-10-16T01:00:08;13.50;99.90
23087;DHT22;11712;51.134;4.156;2022-10-16T01:02:34;13.50;99.90
23087;DHT22;11712;51.134;4.156;2022-10-16T01:05:01;13.50;99.90
23087;DHT22;11712;51.134;4.156;2022-10-16T01:15:31;13.60;99.90
23087;DHT22;11712;51.134;4.156;2022-10-16T01:18:12;13.50;99.90
23087;DHT22;11712;51.134;4.156;2022-10-16T01:20:47;13.50;99.90
23087;DHT22;11712;51.134;4.156;2022-10-16T01:23:21;13.50;99.90
23087;DHT22;11712;51.134;4.156;2022-10-16T01:28:51;13.40;99.90
23087;DHT22;11712;51.134;4.156;2022-10-16T01:31:20;13.30;99.90
23087;DHT22;11712;51.134;4.156;2022-10-16T01:33:51;13.30;99.90
23087;DHT22;11712;51.134;4.156;2022-10-16T01:36:26;13.30;99.90
23087;DHT22;11712;51.134;4.156;2022-10-16T01:38:56;13.20;99.90
23087;DHT22;11712;51.134;4.156;2022-10-16T01:41:34;13.20;99.90
23087;DHT22;11712;51.134;4.156;2022-10-16T01:44:31;13.20;99.90
23087;DHT22;11712;51.134;4.156;2022-10-16T01:46:59;13.10;99.90
23087;DHT22;11712;51.134;4.156;2022-10-16T01:49:27;13.10;99.90
23087;DHT22;11712;51.134;4.156;2022-10-16T01:51:57;13.00;99.90
23087;DHT22;11712;51.134;4.156;2022-10-16T01:54:27;13.00;99.90
23087;DHT22;11712;51.134;4.156;2022-10-16T01:56:55;13.10;99.90
23087;DHT22;11712;51.134;4.156;2022-10-16T01:59:23;13.10;99.90
23087;DHT22;11712;51.134;4.156;2022-10-16T02:01:53;13.30;99.90
23087;DHT22;11712;51.134;4.156;2022-10-16T02:04:34;13.30;99.90
23087;DHT22;11712;51.134;4.156;2022-10-16T02:07:00;13.30;99.90
23087;DHT22;11712;51.134;4.156;2022-10-16T02:09:26;13.10;99.90
23087;DHT22;11712;51.134;4.156;2022-10-16T02:11:56;13.10;99.90
23087;DHT22;11712;51.134;4.156;2022-10-16T02:14:23;13.00;99.90
23087;DHT22;11712;51.134;4.156;2022-10-16T02:16:50;13.00;99.90
23087;DHT22;11712;51.134;4.156;2022-10-16T02:19:17;13.10;99.90
23087;DHT22;11712;51.134;4.156;2022-10-16T02:21:51;13.10;99.90
23087;DHT22;11712;51.134;4.156;2022-10-16T02:24:33;13.00;99.90
23087;DHT22;11712;51.134;4.156;2022-10-16T02:29:26;12.90;99.90
23087;DHT22;11712;51.134;4.156;2022-10-16T02:31:59;13.00;99.90
23087;DHT22;11712;51.134;4.156;2022-10-16T02:34:27;13.00;99.90
23087;DHT22;11712;51.134;4.156;2022-10-16T02:36:56;13.00;99.90
23087;DHT22;11712;51.134;4.156;2022-10-16T02:39:22;13.00;99.90
23087;DHT22;11712;51.134;4.156;2022-10-16T02:41:48;13.00;99.90
23087;DHT22;11712;51.134;4.156;2022-10-16T02:44:14;13.00;99.90
23087;DHT22;11712;51.134;4.156;2022-10-16T02:46:40;13.00;99.90
23087;DHT22;11712;51.134;4.156;2022-10-16T02:49:05;13.00;99.90
23087;DHT22;11712;51.134;4.156;2022-10-16T02:51:31;13.00;99.90
23087;DHT22;11712;51.134;4.156;2022-10-16T02:53:57;13.10;99.90
23087;DHT22;11712;51.134;4.156;2022-10-16T02:56:22;13.00;99.90
23087;DHT22;11712;51.134;4.156;2022-10-16T02:58:48;13.00;99.90
23087;DHT22;11712;51.134;4.156;2022-10-16T03:01:14;13.00;99.90
23087;DHT22;11712;51.134;4.156;2022-10-16T03:03:42;13.10;99.90
23087;DHT22;11712;51.134;4.156;2022-10-16T03:06:08;13.20;99.90
23087;DHT22;11712;51.134;4.156;2022-10-16T03:08:33;13.10;99.90
23087;DHT22;11712;51.134;4.156;2022-10-16T03:10:59;13.10;99.90
23087;DHT22;11712;51.134;4.156;2022-10-16T03:13:25;13.20;99.90
23087;DHT22;11712;51.134;4.156;2022-10-16T03:15:50;13.20;99.90
23087;DHT22;11712;51.134;4.156;2022-10-16T03:18:16;13.20;99.90
23087;DHT22;11712;51.134;4.156;2022-10-16T03:20:43;13.10;99.90
23087;DHT22;11712;51.134;4.156;2022-10-16T03:23:09;13.20;99.90
23087;DHT22;11712;51.134;4.156;2022-10-16T03:25:34;13.10;99.90
23087;DHT22;11712;51.134;4.156;2022-10-16T03:28:00;13.20;99.90
23087;DHT22;11712;51.134;4.156;2022-10-16T03:30:27;13.20;99.90
23087;DHT22;11712;51.134;4.156;2022-10-16T03:32:52;13.30;99.90
23087;DHT22;11712;51.134;4.156;2022-10-16T03:35:20;13.20;99.90
23087;DHT22;11712;51.134;4.156;2022-10-16T03:37:46;13.10;99.90
23087;DHT22;11712;51.134;4.156;2022-10-16T03:40:12;13.10;99.90
23087;DHT22;11712;51.134;4.156;2022-10-16T03:42:37;13.20;99.90
23087;DHT22;11712;51.134;4.156;2022-10-16T03:45:04;13.00;99.90
23087;DHT22;11712;51.134;4.156;2022-10-16T03:47:30;13.10;99.90
23087;DHT22;11712;51.134;4.156;2022-10-16T03:49:56;13.10;99.90
23087;DHT22;11712;51.134;4.156;2022-10-16T03:52:21;13.30;99.90
23087;DHT22;11712;51.134;4.156;2022-10-16T03:54:47;13.20;99.90
23087;DHT22;11712;51.134;4.156;2022-10-16T03:57:12;13.20;99.90
23087;DHT22;11712;51.134;4.156;2022-10-16T03:59:38;13.10;99.90
23087;DHT22;11712;51.134;4.156;2022-10-16T04:02:04;13.10;99.90
23087;DHT22;11712;51.134;4.156;2022-10-16T04:04:29;13.00;99.90
23087;DHT22;11712;51.134;4.156;2022-10-16T04:06:55;13.10;99.90
23087;DHT22;11712;51.134;4.156;2022-10-16T04:09:20;13.10;99.90
23087;DHT22;11712;51.134;4.156;2022-10-16T04:11:46;13.10;99.90
23087;DHT22;11712;51.134;4.156;2022-10-16T04:14:12;13.00;99.90
23087;DHT22;11712;51.134;4.156;2022-10-16T04:16:37;13.00;99.90
23087;DHT22;11712;51.134;4.156;2022-10-16T04:19:03;12.90;99.90
23087;DHT22;11712;51.134;4.156;2022-10-16T04:21:28;12.80;99.90
23087;DHT22;11712;51.134;4.156;2022-10-16T04:23:54;12.80;99.90
23087;DHT22;11712;51.134;4.156;2022-10-16T04:26:20;12.80;99.90
23087;DHT22;11712;51.134;4.156;2022-10-16T04:28:45;12.80;99.90
23087;DHT22;11712;51.134;4.156;2022-10-16T04:31:11;12.80;99.90
23087;DHT22;11712;51.134;4.156;2022-10-16T04:33:36;12.80;99.90
23087;DHT22;11712;51.134;4.156;2022-10-16T04:36:03;12.80;99.90
23087;DHT22;11712;51.134;4.156;2022-10-16T04:38:29;12.70;99.90
23087;DHT22;11712;51.134;4.156;2022-10-16T04:40:55;12.80;99.90
23087;DHT22;11712;51.134;4.156;2022-10-16T04:43:20;12.80;99.90
23087;DHT22;11712;51.134;4.156;2022-10-16T04:45:46;12.90;99.90
23087;DHT22;11712;51.134;4.156;2022-10-16T04:48:12;12.70;99.90
23087;DHT22;11712;51.134;4.156;2022-10-16T04:50:37;12.70;99.90
23087;DHT22;11712;51.134;4.156;2022-10-16T04:53:03;12.80;99.90
23087;DHT22;11712;51.134;4.156;2022-10-16T04:56:17;12.70;99.90
23087;DHT22;11712;51.134;4.156;2022-10-16T04:58:43;12.60;99.90
23087;DHT22;11712;51.134;4.156;2022-10-16T05:01:09;12.60;99.90
23087;DHT22;11712;51.134;4.156;2022-10-16T05:03:34;12.70;99.90
23087;DHT22;11712;51.134;4.156;2022-10-16T05:06:00;12.70;99.90
23087;DHT22;11712;51.134;4.156;2022-10-16T05:08:26;12.70;99.90
23087;DHT22;11712;51.134;4.156;2022-10-16T05:10:51;12.70;99.90
23087;DHT22;11712;51.134;4.156;2022-10-16T05:13:17;12.70;99.90
23087;DHT22;11712;51.134;4.156;2022-10-16T05:15:47;12.70;99.90
23087;DHT22;11712;51.134;4.156;2022-10-16T05:18:13;12.80;99.90
23087;DHT22;11712;51.134;4.156;2022-10-16T05:20:39;12.70;99.90
23087;DHT22;11712;51.134;4.156;2022-10-16T05:23:04;12.60;99.90
23087;DHT22;11712;51.134;4.156;2022-10-16T05:25:30;12.60;99.90
23087;DHT22;11712;51.134;4.156;2022-10-16T05:27:55;12.60;99.90
23087;DHT22;11712;51.134;4.156;2022-10-16T05:30:21;12.50;99.90
23087;DHT22;11712;51.134;4.156;2022-10-16T05:32:50;12.50;99.90
23087;DHT22;11712;51.134;4.156;2022-10-16T05:35:17;12.50;99.90
23087;DHT22;11712;51.134;4.156;2022-10-16T05:37:43;12.50;99.90
23087;DHT22;11712;51.134;4.156;2022-10-16T05:40:09;12.50;99.90
23087;DHT22;11712;51.134;4.156;2022-10-16T05:42:35;12.50;99.90
23087;DHT22;11712;51.134;4.156;2022-10-16T05:45:01;12.50;99.90
23087;DHT22;11712;51.134;4.156;2022-10-16T05:47:27;12.50;99.90
23087;DHT22;11712;51.134;4.156;2022-10-16T05:49:53;12.60;99.90
23087;DHT22;11712;51.134;4.156;2022-10-16T05:52:18;12.70;99.90
23087;DHT22;11712;51.134;4.156;2022-10-16T05:54:44;12.90;99.90
23087;DHT22;11712;51.134;4.156;2022-10-16T05:57:09;13.00;99.90
23087;DHT22;11712;51.134;4.156;2022-10-16T05:59:35;13.10;99.90
23087;DHT22;11712;51.134;4.156;2022-10-16T06:02:01;13.20;99.90
23087;DHT22;11712;51.134;4.156;2022-10-16T06:04:26;13.20;99.90
23087;DHT22;11712;51.134;4.156;2022-10-16T06:06:52;13.20;99.90
23087;DHT22;11712;51.134;4.156;2022-10-16T06:09:18;13.30;99.90
23087;DHT22;11712;51.134;4.156;2022-10-16T06:11:43;13.20;99.90
23087;DHT22;11712;51.134;4.156;2022-10-16T06:14:09;13.20;99.90
23087;DHT22;11712;51.134;4.156;2022-10-16T06:16:36;13.40;99.90
23087;DHT22;11712;51.134;4.156;2022-10-16T06:19:03;13.30;99.90
23087;DHT22;11712;51.134;4.156;2022-10-16T06:21:32;13.20;99.90
23087;DHT22;11712;51.134;4.156;2022-10-16T06:23:58;13.20;99.90
23087;DHT22;11712;51.134;4.156;2022-10-16T06:26:28;13.20;99.90
23087;DHT22;11712;51.134;4.156;2022-10-16T06:28:56;13.30;99.90
23087;DHT22;11712;51.134;4.156;2022-10-16T06:31:22;13.20;99.90
23087;DHT22;11712;51.134;4.156;2022-10-16T06:33:51;13.10;99.90
23087;DHT22;11712;51.134;4.156;2022-10-16T06:36:17;13.10;99.90
23087;DHT22;11712;51.134;4.156;2022-10-16T06:38:44;13.10;99.90
23087;DHT22;11712;51.134;4.156;2022-10-16T06:41:13;13.10;99.90
23087;DHT22;11712;51.134;4.156;2022-10-16T06:43:39;13.00;99.90
23087;DHT22;11712;51.134;4.156;2022-10-16T06:46:06;13.10;99.90
23087;DHT22;11712;51.134;4.156;2022-10-16T06:48:35;13.10;99.90
23087;DHT22;11712;51.134;4.156;2022-10-16T06:51:04;13.20;99.90
23087;DHT22;11712;51.134;4.156;2022-10-16T06:53:32;13.20;99.90
23087;DHT22;11712;51.134;4.156;2022-10-16T06:56:14;13.10;99.90
23087;DHT22;11712;51.134;4.156;2022-10-16T06:58:40;13.20;99.90
23087;DHT22;11712;51.134;4.156;2022-10-16T07:01:07;13.30;99.90
23087;DHT22;11712;51.134;4.156;2022-10-16T07:03:33;13.20;99.90
23087;DHT22;11712;51.134;4.156;2022-10-16T07:06:02;13.30;99.90
23087;DHT22;11712;51.134;4.156;2022-10-16T07:08:31;13.30;99.90
23087;DHT22;11712;51.134;4.156;2022-10-16T07:11:02;13.30;99.90
23087;DHT22;11712;51.134;4.156;2022-10-16T07:13:28;13.30;99.90
23087;DHT22;11712;51.134;4.156;2022-10-16T07:15:54;13.40;99.90
23087;DHT22;11712;51.134;4.156;2022-10-16T07:18:20;13.40;99.90
23087;DHT22;11712;51.134;4.156;2022-10-16T07:20:46;13.50;99.90
23087;DHT22;11712;51.134;4.156;2022-10-16T07:23:11;13.50;99.90
23087;DHT22;11712;51.134;4.156;2022-10-16T07:25:37;13.50;99.90
23087;DHT22;11712;51.134;4.156;2022-10-16T07:28:03;13.60;99.90
23087;DHT22;11712;51.134;4.156;2022-10-16T07:30:28;13.60;99.90
23087;DHT22;11712;51.134;4.156;2022-10-16T07:32:54;13.60;99.90
23087;DHT22;11712;51.134;4.156;2022-10-16T07:35:20;13.70;99.90
23087;DHT22;11712;51.134;4.156;2022-10-16T07:37:46;13.70;99.90
23087;DHT22;11712;51.134;4.156;2022-10-16T07:40:12;13.90;99.90
23087;DHT22;11712;51.134;4.156;2022-10-16T07:42:38;13.90;99.90
23087;DHT22;11712;51.134;4.156;2022-10-16T07:45:04;14.00;99.90
23087;DHT22;11712;51.134;4.156;2022-10-16T07:47:29;14.00;99.90
23087;DHT22;11712;51.134;4.156;2022-10-16T07:49:55;14.20;99.90
23087;DHT22;11712;51.134;4.156;2022-10-16T07:52:21;14.20;99.90
23087;DHT22;11712;51.134;4.156;2022-10-16T07:54:46;14.40;99.90
23087;DHT22;11712;51.134;4.156;2022-10-16T07:57:12;14.30;99.90
23087;DHT22;11712;51.134;4.156;2022-10-16T07:59:44;14.40;99.90
23087;DHT22;11712;51.134;4.156;2022-10-16T08:02:10;14.70;99.90
23087;DHT22;11712;51.134;4.156;2022-10-16T08:04:35;14.70;99.90
23087;DHT22;11712;51.134;4.156;2022-10-16T08:07:01;14.70;99.90
23087;DHT22;11712;51.134;4.156;2022-10-16T08:09:27;14.80;99.90
23087;DHT22;11712;51.134;4.156;2022-10-16T08:11:52;14.90;99.90
23087;DHT22;11712;51.134;4.156;2022-10-16T08:14:18;15.00;99.90
23087;DHT22;11712;51.134;4.156;2022-10-16T08:16:43;15.10;99.90
23087;DHT22;11712;51.134;4.156;2022-10-16T08:20:14;15.20;99.90
23087;DHT22;11712;51.134;4.156;2022-10-16T08:22:39;15.20;99.90
23087;DHT22;11712;51.134;4.156;2022-10-16T08:25:05;15.30;99.90
23087;DHT22;11712;51.134;4.156;2022-10-16T08:27:34;15.30;99.90
23087;DHT22;11712;51.134;4.156;2022-10-16T08:29:59;15.40;99.90
23087;DHT22;11712;51.134;4.156;2022-10-16T08:32:25;15.50;99.90
23087;DHT22;11712;51.134;4.156;2022-10-16T08:34:51;15.60;99.90
23087;DHT22;11712;51.134;4.156;2022-10-16T08:37:16;15.50;99.90
23087;DHT22;11712;51.134;4.156;2022-10-16T08:39:42;15.60;99.90
23087;DHT22;11712;51.134;4.156;2022-10-16T08:47:37;15.90;99.90
23087;DHT22;11712;51.134;4.156;2022-10-16T08:50:13;16.00;99.90
23087;DHT22;11712;51.134;4.156;2022-10-16T08:52:43;16.10;99.90
23087;DHT22;11712;51.134;4.156;2022-10-16T08:55:30;16.00;99.90
23087;DHT22;11712;51.134;4.156;2022-10-16T08:57:56;16.00;99.90
23087;DHT22;11712;51.134;4.156;2022-10-16T09:00:22;16.00;99.90
23087;DHT22;11712;51.134;4.156;2022-10-16T09:02:59;16.10;99.90
23087;DHT22;11712;51.134;4.156;2022-10-16T09:10:59;16.40;99.90
23087;DHT22;11712;51.134;4.156;2022-10-16T09:16:28;16.40;99.90
23087;DHT22;11712;51.134;4.156;2022-10-16T09:19:44;16.40;99.90
23087;DHT22;11712;51.134;4.156;2022-10-16T09:21:49;16.50;99.90
23087;DHT22;11712;51.134;4.156;2022-10-16T09:24:19;16.50;99.90
23087;DHT22;11712;51.134;4.156;2022-10-16T09:26:46;16.60;99.90
23087;DHT22;11712;51.134;4.156;2022-10-16T09:29:16;16.70;99.90
23087;DHT22;11712;51.134;4.156;2022-10-16T09:31:43;16.70;99.90
23087;DHT22;11712;51.134;4.156;2022-10-16T09:34:33;16.80;99.90
23087;DHT22;11712;51.134;4.156;2022-10-16T09:37:01;16.70;99.90
23087;DHT22;11712;51.134;4.156;2022-10-16T09:39:28;16.80;99.90
23087;DHT22;11712;51.134;4.156;2022-10-16T09:41:55;17.00;99.90
23087;DHT22;11712;51.134;4.156;2022-10-16T09:44:24;17.10;99.90
23087;DHT22;11712;51.134;4.156;2022-10-16T09:47:12;17.10;99.90
23087;DHT22;11712;51.134;4.156;2022-10-16T09:49:54;17.20;99.90
23087;DHT22;11712;51.134;4.156;2022-10-16T09:52:21;17.30;99.90
23087;DHT22;11712;51.134;4.156;2022-10-16T09:55:01;17.40;99.90
23087;DHT22;11712;51.134;4.156;2022-10-16T09:57:27;17.60;99.90
23087;DHT22;11712;51.134;4.156;2022-10-16T09:59:55;17.70;99.90
23087;DHT22;11712;51.134;4.156;2022-10-16T10:02:36;17.80;99.90
23087;DHT22;11712;51.134;4.156;2022-10-16T10:05:06;17.70;99.90
23087;DHT22;11712;51.134;4.156;2022-10-16T10:07:43;17.60;99.90
23087;DHT22;11712;51.134;4.156;2022-10-16T10:10:29;17.70;99.90
23087;DHT22;11712;51.134;4.156;2022-10-16T10:12:56;17.90;99.90
23087;DHT22;11712;51.134;4.156;2022-10-16T10:15:22;18.10;99.90
23087;DHT22;11712;51.134;4.156;2022-10-16T10:17:57;18.20;99.90
23087;DHT22;11712;51.134;4.156;2022-10-16T10:20:32;18.10;99.90
23087;DHT22;11712;51.134;4.156;2022-10-16T10:23:00;17.90;99.90
23087;DHT22;11712;51.134;4.156;2022-10-16T10:28:31;18.20;99.90
23087;DHT22;11712;51.134;4.156;2022-10-16T10:31:13;18.30;99.90
23087;DHT22;11712;51.134;4.156;2022-10-16T10:33:48;18.60;99.90
23087;DHT22;11712;51.134;4.156;2022-10-16T10:36:19;18.50;99.90
23087;DHT22;11712;51.134;4.156;2022-10-16T10:44:16;18.00;99.90
23087;DHT22;11712;51.134;4.156;2022-10-16T10:52:59;17.80;99.90
23087;DHT22;11712;51.134;4.156;2022-10-16T10:58:01;17.90;99.90
23087;DHT22;11712;51.134;4.156;2022-10-16T11:05:45;18.30;99.90
23087;DHT22;11712;51.134;4.156;2022-10-16T11:11:22;18.20;99.90
23087;DHT22;11712;51.134;4.156;2022-10-16T11:14:26;18.30;99.90
23087;DHT22;11712;51.134;4.156;2022-10-16T11:17:11;18.50;99.90
23087;DHT22;11712;51.134;4.156;2022-10-16T11:19:51;18.30;99.90
23087;DHT22;11712;51.134;4.156;2022-10-16T11:25:31;18.40;99.90
23087;DHT22;11712;51.134;4.156;2022-10-16T11:28:02;18.70;99.90
23087;DHT22;11712;51.134;4.156;2022-10-16T11:30:31;18.80;99.90
23087;DHT22;11712;51.134;4.156;2022-10-16T11:33:10;19.00;99.90
23087;DHT22;11712;51.134;4.156;2022-10-16T11:35:51;19.10;99.90
23087;DHT22;11712;51.134;4.156;2022-10-16T11:38:34;19.20;99.90
23087;DHT22;11712;51.134;4.156;2022-10-16T11:43:57;19.30;99.90
23087;DHT22;11712;51.134;4.156;2022-10-16T11:46:27;19.10;99.90
23087;DHT22;11712;51.134;4.156;2022-10-16T11:49:00;19.20;99.90
23087;DHT22;11712;51.134;4.156;2022-10-16T11:51:52;19.40;99.90
23087;DHT22;11712;51.134;4.156;2022-10-16T11:54:33;19.60;99.90
23087;DHT22;11712;51.134;4.156;2022-10-16T11:57:10;19.80;99.90
23087;DHT22;11712;51.134;4.156;2022-10-16T11:59:59;19.80;99.90
23087;DHT22;11712;51.134;4.156;2022-10-16T12:02:38;19.70;99.90
23087;DHT22;11712;51.134;4.156;2022-10-16T12:10:31;20.00;99.90
23087;DHT22;11712;51.134;4.156;2022-10-16T12:12:59;19.90;99.90
23087;DHT22;11712;51.134;4.156;2022-10-16T12:15:26;19.90;99.90
23087;DHT22;11712;51.134;4.156;2022-10-16T12:17:52;19.80;99.90
23087;DHT22;11712;51.134;4.156;2022-10-16T12:20:30;19.80;99.90
23087;DHT22;11712;51.134;4.156;2022-10-16T12:23:03;19.80;99.90
23087;DHT22;11712;51.134;4.156;2022-10-16T12:25:36;20.00;99.90
23087;DHT22;11712;51.134;4.156;2022-10-16T12:28:19;19.80;99.90
23087;DHT22;11712;51.134;4.156;2022-10-16T12:30:56;19.70;99.90
23087;DHT22;11712;51.134;4.156;2022-10-16T12:35:53;19.80;99.90
23087;DHT22;11712;51.134;4.156;2022-10-16T12:38:25;20.20;99.90
23087;DHT22;11712;51.134;4.156;2022-10-16T12:48:33;20.50;99.90
23087;DHT22;11712;51.134;4.156;2022-10-16T12:57:18;20.40;99.90
23087;DHT22;11712;51.134;4.156;2022-10-16T13:18:22;20.90;99.90
23087;DHT22;11712;51.134;4.156;2022-10-16T13:23:38;21.00;99.90
23087;DHT22;11712;51.134;4.156;2022-10-16T13:28:52;20.70;99.90
23087;DHT22;11712;51.134;4.156;2022-10-16T13:31:25;20.60;99.90
23087;DHT22;11712;51.134;4.156;2022-10-16T13:33:53;20.30;99.90
23087;DHT22;11712;51.134;4.156;2022-10-16T13:36:23;20.30;99.90
23087;DHT22;11712;51.134;4.156;2022-10-16T13:39:15;20.30;99.90
23087;DHT22;11712;51.134;4.156;2022-10-16T13:41:42;20.50;99.90
23087;DHT22;11712;51.134;4.156;2022-10-16T13:44:15;20.70;99.90
23087;DHT22;11712;51.134;4.156;2022-10-16T13:46:42;20.80;99.90
23087;DHT22;11712;51.134;4.156;2022-10-16T13:49:16;21.10;99.90
23087;DHT22;11712;51.134;4.156;2022-10-16T13:51:57;21.10;99.90
23087;DHT22;11712;51.134;4.156;2022-10-16T13:54:23;21.20;99.90
23087;DHT22;11712;51.134;4.156;2022-10-16T13:56:49;21.10;99.90
23087;DHT22;11712;51.134;4.156;2022-10-16T13:59:35;21.20;99.90
23087;DHT22;11712;51.134;4.156;2022-10-16T14:02:08;21.00;99.90
23087;DHT22;11712;51.134;4.156;2022-10-16T14:04:39;20.90;99.90
23087;DHT22;11712;51.134;4.156;2022-10-16T14:07:05;21.00;99.90
23087;DHT22;11712;51.134;4.156;2022-10-16T14:09:31;21.00;99.90
23087;DHT22;11712;51.134;4.156;2022-10-16T14:12:08;20.80;99.90
23087;DHT22;11712;51.134;4.156;2022-10-16T14:14:41;20.30;99.90
23087;DHT22;11712;51.134;4.156;2022-10-16T14:17:18;20.00;99.90
23087;DHT22;11712;51.134;4.156;2022-10-16T14:19:49;20.20;99.90
23087;DHT22;11712;51.134;4.156;2022-10-16T14:24:59;20.40;99.90
23087;DHT22;11712;51.134;4.156;2022-10-16T14:27:36;20.50;99.90
23087;DHT22;11712;51.134;4.156;2022-10-16T14:30:15;20.70;99.90
23087;DHT22;11712;51.134;4.156;2022-10-16T14:32:56;21.00;99.90
23087;DHT22;11712;51.134;4.156;2022-10-16T14:37:56;21.00;99.90
23087;DHT22;11712;51.134;4.156;2022-10-16T14:40:25;20.70;99.90
23087;DHT22;11712;51.134;4.156;2022-10-16T14:42:52;20.60;99.90
23087;DHT22;11712;51.134;4.156;2022-10-16T14:45:24;20.60;99.90
23087;DHT22;11712;51.134;4.156;2022-10-16T14:47:54;20.40;99.90
23087;DHT22;11712;51.134;4.156;2022-10-16T14:50:21;20.50;99.90
23087;DHT22;11712;51.134;4.156;2022-10-16T14:52:47;20.40;99.90
23087;DHT22;11712;51.134;4.156;2022-10-16T14:55:14;20.50;99.90
23087;DHT22;11712;51.134;4.156;2022-10-16T14:57:40;20.30;99.90
23087;DHT22;11712;51.134;4.156;2022-10-16T15:00:19;19.80;99.90
23087;DHT22;11712;51.134;4.156;2022-10-16T15:02:46;19.70;99.90
23087;DHT22;11712;51.134;4.156;2022-10-16T15:05:22;19.50;99.90
23087;DHT22;11712;51.134;4.156;2022-10-16T15:07:49;19.60;99.90
23087;DHT22;11712;51.134;4.156;2022-10-16T15:10:16;19.70;99.90
23087;DHT22;11712;51.134;4.156;2022-10-16T15:12:43;19.90;99.90
23087;DHT22;11712;51.134;4.156;2022-10-16T15:17:53;19.60;99.90
23087;DHT22;11712;51.134;4.156;2022-10-16T15:20:25;19.70;99.90
23087;DHT22;11712;51.134;4.156;2022-10-16T15:22:51;19.80;99.90
23087;DHT22;11712;51.134;4.156;2022-10-16T15:27:58;19.80;99.90
23087;DHT22;11712;51.134;4.156;2022-10-16T15:30:24;19.90;99.90
23087;DHT22;11712;51.134;4.156;2022-10-16T15:32:50;19.80;99.90
23087;DHT22;11712;51.134;4.156;2022-10-16T15:35:15;19.60;99.90
23087;DHT22;11712;51.134;4.156;2022-10-16T15:37:41;19.60;99.90
23087;DHT22;11712;51.134;4.156;2022-10-16T15:40:08;19.60;99.90
23087;DHT22;11712;51.134;4.156;2022-10-16T15:42:34;19.60;99.90
23087;DHT22;11712;51.134;4.156;2022-10-16T15:44:59;19.60;99.90
23087;DHT22;11712;51.134;4.156;2022-10-16T15:47:25;19.50;99.90
23087;DHT22;11712;51.134;4.156;2022-10-16T15:49:50;19.20;99.90
23087;DHT22;11712;51.134;4.156;2022-10-16T15:52:16;19.10;99.90
23087;DHT22;11712;51.134;4.156;2022-10-16T15:54:42;19.10;99.90
23087;DHT22;11712;51.134;4.156;2022-10-16T15:57:08;19.00;99.90
23087;DHT22;11712;51.134;4.156;2022-10-16T15:59:34;19.00;99.90
23087;DHT22;11712;51.134;4.156;2022-10-16T16:01:59;19.00;99.90
23087;DHT22;11712;51.134;4.156;2022-10-16T16:04:25;19.00;99.90
23087;DHT22;11712;51.134;4.156;2022-10-16T16:06:51;19.00;99.90
23087;DHT22;11712;51.134;4.156;2022-10-16T16:09:16;18.90;99.90
23087;DHT22;11712;51.134;4.156;2022-10-16T16:11:42;18.90;99.90
23087;DHT22;11712;51.134;4.156;2022-10-16T16:14:12;18.70;99.90
23087;DHT22;11712;51.134;4.156;2022-10-16T16:16:38;18.50;99.90
23087;DHT22;11712;51.134;4.156;2022-10-16T16:19:05;18.50;99.90
23087;DHT22;11712;51.134;4.156;2022-10-16T16:21:38;18.40;99.90
23087;DHT22;11712;51.134;4.156;2022-10-16T16:24:09;18.30;99.90
23087;DHT22;11712;51.134;4.156;2022-10-16T16:26:35;18.30;99.90
23087;DHT22;11712;51.134;4.156;2022-10-16T16:29:02;18.20;99.90
23087;DHT22;11712;51.134;4.156;2022-10-16T16:31:30;18.10;99.90
23087;DHT22;11712;51.134;4.156;2022-10-16T16:33:57;18.00;99.90
23087;DHT22;11712;51.134;4.156;2022-10-16T16:36:23;18.00;99.90
23087;DHT22;11712;51.134;4.156;2022-10-16T16:38:49;18.00;99.90
23087;DHT22;11712;51.134;4.156;2022-10-16T16:41:17;18.00;99.90
23087;DHT22;11712;51.134;4.156;2022-10-16T16:43:43;17.90;99.90
23087;DHT22;11712;51.134;4.156;2022-10-16T16:46:09;17.90;99.90
23087;DHT22;11712;51.134;4.156;2022-10-16T16:48:35;18.00;99.90
23087;DHT22;11712;51.134;4.156;2022-10-16T16:51:13;18.00;99.90
23087;DHT22;11712;51.134;4.156;2022-10-16T16:53:44;17.90;99.90
23087;DHT22;11712;51.134;4.156;2022-10-16T16:56:10;17.90;99.90
23087;DHT22;11712;51.134;4.156;2022-10-16T16:58:36;18.00;99.90
23087;DHT22;11712;51.134;4.156;2022-10-16T17:01:02;17.90;99.90
23087;DHT22;11712;51.134;4.156;2022-10-16T17:03:33;17.90;99.90
23087;DHT22;11712;51.134;4.156;2022-10-16T17:08:26;17.90;99.90
23087;DHT22;11712;51.134;4.156;2022-10-16T17:10:51;17.80;99.90
23087;DHT22;11712;51.134;4.156;2022-10-16T17:13:23;17.80;99.90
23087;DHT22;11712;51.134;4.156;2022-10-16T17:15:50;17.80;99.90
23087;DHT22;11712;51.134;4.156;2022-10-16T17:18:16;17.80;99.90
23087;DHT22;11712;51.134;4.156;2022-10-16T17:20:42;18.00;99.90
23087;DHT22;11712;51.134;4.156;2022-10-16T17:23:08;17.90;99.90
23087;DHT22;11712;51.134;4.156;2022-10-16T17:25:38;18.00;99.90
23087;DHT22;11712;51.134;4.156;2022-10-16T17:28:05;17.90;99.90
23087;DHT22;11712;51.134;4.156;2022-10-16T17:30:31;18.10;99.90
23087;DHT22;11712;51.134;4.156;2022-10-16T17:33:03;18.10;99.90
23087;DHT22;11712;51.134;4.156;2022-10-16T17:35:28;18.10;99.90
23087;DHT22;11712;51.134;4.156;2022-10-16T17:37:54;18.00;99.90
23087;DHT22;11712;51.134;4.156;2022-10-16T17:40:20;18.00;99.90